Time;durP1;ratioP1;P1;durP2;ratioP2;P2;SDS_P1;SDS_P2;PMS_P1;PMS_P2;Temp;Humidity;BMP_temperature;BMP_pressure;BME280_temperature;BME280_humidity;BME280_pressure;Samples;Min_cycle;Max_cycle;Signal;HPM_P1;HPM_P2
2022/02/23 00:02:28;;;;;;;20.15;6.78;;;;;;;3.54;87.97;100529.63;5093730;28;20465;-75
2022/02/23 00:04:56;;;;;;;18.75;6.25;;;;;;;3.53;88.39;100527.88;5077864;28;20048;-73
2022/02/23 00:07:24;;;;;;;12.82;4.25;;;;;;;3.53;88.41;100538.44;5078168;28;20056;-73
2022/02/23 00:09:53;;;;;;;16.38;4.93;;;;;;;3.41;89.28;100523.81;5077746;28;20050;-74
2022/02/23 00:12:21;;;;;;;11.20;4.32;;;;;;;3.33;90.79;100533.69;5096298;28;20040;-72
2022/02/23 00:14:51;;;;;;;8.02;3.38;;;;;;;3.33;90.83;100531.06;5096049;28;20040;-74
2022/02/23 00:17:24;;;;;;;14.27;3.75;;;;;;;3.32;90.94;100523.19;5095513;28;20060;-73
2022/02/23 00:19:54;;;;;;;10.90;3.92;;;;;;;3.29;91.30;100518.88;5095837;28;20036;-74
2022/02/23 00:22:25;;;;;;;10.05;4.75;;;;;;;3.22;93.18;100521.69;5096214;28;20570;-73
2022/02/23 00:24:54;;;;;;;7.53;3.95;;;;;;;3.15;93.68;100519.22;5095255;28;20075;-73
2022/02/23 00:27:22;;;;;;;13.43;3.90;;;;;;;3.08;96.67;100519.38;5095544;28;20043;-73
2022/02/23 00:29:50;;;;;;;11.93;3.35;;;;;;;3.15;95.14;100516.56;5095652;28;20469;-82
2022/02/23 00:32:19;;;;;;;9.75;3.97;;;;;;;3.13;95.82;100504.34;5095741;28;20043;-75
2022/02/23 00:34:47;;;;;;;12.15;4.00;;;;;;;3.16;97.15;100485.81;5085274;28;20554;-75
2022/02/23 00:37:17;;;;;;;12.65;4.35;;;;;;;3.18;98.84;100481.34;5095851;28;20040;-75
2022/02/23 00:39:48;;;;;;;10.83;4.07;;;;;;;3.20;98.40;100492.75;5095522;28;20058;-75
2022/02/23 00:42:16;;;;;;;12.52;3.88;;;;;;;3.27;97.24;100483.75;5077266;28;20048;-74
2022/02/23 00:44:44;;;;;;;10.65;3.97;;;;;;;3.35;96.25;100480.91;5076982;28;20140;-75
2022/02/23 00:47:13;;;;;;;11.98;4.80;;;;;;;3.38;97.14;100478.22;5100531;28;20396;-75
2022/02/23 00:49:41;;;;;;;12.55;4.60;;;;;;;3.33;95.81;100488.88;5115899;28;20044;-79
2022/02/23 00:52:09;;;;;;;10.85;4.47;;;;;;;3.33;98.11;100480.94;5097377;28;20051;-79
2022/02/23 00:54:39;;;;;;;17.83;4.95;;;;;;;3.32;97.68;100470.47;5115778;28;20047;-79
2022/02/23 00:57:07;;;;;;;13.63;4.72;;;;;;;3.35;96.07;100479.13;5115068;28;20446;-78
2022/02/23 00:59:35;;;;;;;8.70;3.95;;;;;;;3.37;96.95;100477.31;5097834;28;20039;-78
2022/02/23 01:02:05;;;;;;;13.30;4.28;;;;;;;3.33;97.54;100480.94;5115439;28;20073;-79
2022/02/23 01:04:33;;;;;;;12.77;4.30;;;;;;;3.31;98.75;100482.78;5115662;28;20050;-79
2022/02/23 01:07:01;;;;;;;11.30;4.45;;;;;;;3.34;98.41;100495.00;5115262;28;20078;-79
2022/02/23 01:09:30;;;;;;;10.90;4.20;;;;;;;3.35;98.38;100492.31;5115201;28;20044;-74
2022/02/23 01:12:00;;;;;;;11.35;4.05;;;;;;;3.41;95.90;100489.53;5096877;28;20045;-74
2022/02/23 01:14:28;;;;;;;11.75;4.45;;;;;;;3.43;96.47;100484.22;5097245;28;20469;-75
2022/02/23 01:16:59;;;;;;;9.00;3.38;;;;;;;3.40;95.22;100479.88;5115214;28;20048;-75
2022/02/23 01:19:27;;;;;;;13.63;4.20;;;;;;;3.41;94.37;100480.75;5115212;28;20104;-74
2022/02/23 01:21:55;;;;;;;11.35;4.05;;;;;;;3.41;94.31;100476.34;5114670;28;20492;-75
2022/02/23 01:24:24;;;;;;;17.33;3.97;;;;;;;3.44;96.10;100473.63;5097526;28;20043;-75
2022/02/23 01:26:52;;;;;;;14.65;3.28;;;;;;;3.43;95.82;100465.75;5094807;28;20042;-75
2022/02/23 01:29:22;;;;;;;12.25;3.60;;;;;;;3.40;95.28;100474.63;5094745;28;20052;-75
2022/02/23 01:31:50;;;;;;;8.43;3.08;;;;;;;3.40;96.31;100476.38;5076575;28;20084;-75
2022/02/23 01:34:18;;;;;;;9.02;3.55;;;;;;;3.40;94.58;100473.75;5076170;28;20520;-75
2022/02/23 01:36:46;;;;;;;8.98;3.60;;;;;;;3.36;95.71;100467.69;5094529;28;20036;-74
2022/02/23 01:39:15;;;;;;;11.10;3.65;;;;;;;3.41;94.26;100481.63;5076038;28;20064;-75
2022/02/23 01:41:44;;;;;;;11.40;3.65;;;;;;;3.35;94.55;100475.63;5094164;28;20044;-74
2022/02/23 01:44:12;;;;;;;9.05;3.72;;;;;;;3.43;93.82;100474.53;5094056;28;20499;-78
2022/02/23 01:46:41;;;;;;;7.47;3.58;;;;;;;3.42;93.75;100480.72;5094207;28;20060;-76
2022/02/23 01:49:09;;;;;;;11.13;3.63;;;;;;;3.37;94.38;100473.81;5093984;28;20122;-76
2022/02/23 01:51:38;;;;;;;10.25;3.80;;;;;;;3.40;94.81;100469.34;5094290;28;20085;-75
2022/02/23 01:54:08;;;;;;;11.10;3.72;;;;;;;3.41;94.28;100478.97;5094219;28;20063;-76
2022/02/23 01:56:36;;;;;;;8.05;3.70;;;;;;;3.49;93.69;100489.31;5093423;28;20481;-75
2022/02/23 01:59:04;;;;;;;8.70;3.30;;;;;;;3.47;94.55;100482.34;5093512;28;20032;-76
2022/02/23 02:01:33;;;;;;;11.80;3.75;;;;;;;3.45;94.03;100482.38;5094169;28;20481;-74
2022/02/23 02:04:02;;;;;;;10.75;3.85;;;;;;;3.36;95.40;100483.50;5094134;28;20044;-74
2022/02/23 02:06:31;;;;;;;8.60;3.50;;;;;;;3.44;94.62;100489.44;5076283;28;20059;-74
2022/02/23 02:08:59;;;;;;;10.10;3.38;;;;;;;3.50;93.60;100474.38;5094047;28;20098;-74
2022/02/23 02:11:27;;;;;;;10.20;4.18;;;;;;;3.49;94.18;100484.06;5076209;28;20097;-74
2022/02/23 02:13:56;;;;;;;9.65;3.72;;;;;;;3.55;92.62;100485.63;5094082;28;20086;-74
2022/02/23 02:16:24;;;;;;;8.82;3.28;;;;;;;3.50;94.40;100484.91;5075584;28;20060;-74
2022/02/23 02:18:54;;;;;;;10.15;3.40;;;;;;;3.52;93.80;100488.38;5094248;28;20063;-74
2022/02/23 02:21:24;;;;;;;12.52;4.03;;;;;;;3.52;93.81;100488.38;5094133;28;20048;-74
2022/02/23 02:23:54;;;;;;;12.95;3.78;;;;;;;3.60;93.08;100483.75;5094062;28;20091;-74
2022/02/23 02:26:22;;;;;;;8.65;3.85;;;;;;;3.67;92.32;100488.81;5093407;28;20044;-74
2022/02/23 02:28:50;;;;;;;9.40;3.53;;;;;;;3.79;91.27;100489.38;5093852;28;20042;-74
2022/02/23 02:31:18;;;;;;;10.45;3.40;;;;;;;3.71;91.05;100489.59;5093600;28;20044;-74
2022/02/23 02:33:46;;;;;;;10.63;3.70;;;;;;;3.77;92.03;100493.84;5075457;28;20543;-73
2022/02/23 02:36:19;;;;;;;9.82;3.78;;;;;;;3.93;88.71;100495.97;5093303;28;20040;-73
2022/02/23 02:38:47;;;;;;;12.80;3.47;;;;;;;4.00;86.85;100488.75;5093382;28;20044;-73
2022/02/23 02:41:17;;;;;;;12.88;3.70;;;;;;;4.06;86.23;100487.72;5093512;28;20040;-74
2022/02/23 02:43:45;;;;;;;10.00;3.30;;;;;;;4.03;85.63;100484.22;5075290;28;20409;-75
2022/02/23 02:46:13;;;;;;;8.45;2.90;;;;;;;4.02;85.38;100490.41;5092978;28;20538;-76
2022/02/23 02:48:41;;;;;;;12.15;3.28;;;;;;;4.03;85.38;100492.16;5093451;28;20047;-76
2022/02/23 02:51:10;;;;;;;9.35;3.95;;;;;;;4.06;85.05;100491.22;5074849;28;20066;-76
2022/02/23 02:53:38;;;;;;;10.00;3.40;;;;;;;4.05;84.51;100494.75;5075253;28;20397;-75
2022/02/23 02:56:06;;;;;;;9.82;3.17;;;;;;;3.99;85.54;100495.81;5074889;28;20044;-75
2022/02/23 02:58:36;;;;;;;10.30;3.60;;;;;;;3.97;85.28;100497.63;5093492;28;20047;-75
2022/02/23 03:01:05;;;;;;;9.45;3.42;;;;;;;3.95;85.42;100496.78;5092998;28;20040;-75
2022/02/23 03:03:34;;;;;;;11.63;3.20;;;;;;;3.95;86.33;100496.78;5093040;28;20374;-75
2022/02/23 03:06:02;;;;;;;9.27;3.25;;;;;;;4.15;84.70;100484.78;5074961;28;20070;-76
2022/02/23 03:08:30;;;;;;;9.07;2.90;;;;;;;4.19;84.51;100489.06;5093126;28;20040;-75
2022/02/23 03:10:58;;;;;;;7.07;2.78;;;;;;;4.28;83.92;100491.44;5097019;28;20051;-75
2022/02/23 03:13:29;;;;;;;9.98;2.95;;;;;;;4.29;83.89;100485.22;5079581;28;20048;-76
2022/02/23 03:15:58;;;;;;;12.13;3.08;;;;;;;4.39;83.88;100488.44;5097366;28;20063;-76
2022/02/23 03:18:27;;;;;;;8.95;3.03;;;;;;;4.37;84.68;100488.50;5078984;28;20516;-76
2022/02/23 03:20:55;;;;;;;7.35;2.58;;;;;;;4.37;84.97;100490.28;5097137;28;20090;-76
2022/02/23 03:23:25;;;;;;;10.65;3.20;;;;;;;4.35;85.74;100485.06;5096901;28;20048;-75
2022/02/23 03:25:54;;;;;;;8.68;2.70;;;;;;;4.25;87.90;100487.13;5097149;28;20043;-76
2022/02/23 03:28:22;;;;;;;6.70;2.92;;;;;;;4.17;89.33;100481.19;5078863;28;20060;-75
2022/02/23 03:30:51;;;;;;;10.55;3.38;;;;;;;4.12;91.00;100488.38;5078898;28;20130;-76
2022/02/23 03:33:22;;;;;;;13.15;3.90;;;;;;;4.13;91.84;100484.81;5096942;28;20074;-75
2022/02/23 03:35:51;;;;;;;10.27;3.13;;;;;;;4.11;93.26;100493.72;5096871;28;20109;-75
2022/02/23 03:38:20;;;;;;;10.85;3.10;;;;;;;4.03;94.90;100494.78;5096542;28;20114;-76
2022/02/23 03:40:48;;;;;;;10.30;3.25;;;;;;;4.07;95.96;100490.31;5096911;28;20071;-76
2022/02/23 03:43:17;;;;;;;10.15;3.33;;;;;;;4.08;97.49;100499.09;5096583;28;20036;-75
2022/02/23 03:45:46;;;;;;;11.73;3.55;;;;;;;4.08;98.04;100496.44;5096884;28;20044;-76
2022/02/23 03:48:14;;;;;;;11.38;3.28;;;;;;;4.05;99.45;100501.78;5096540;28;20069;-76
2022/02/23 03:50:46;;;;;;;8.60;3.38;;;;;;;4.11;98.92;100502.50;5096874;28;20036;-75
2022/02/23 03:53:15;;;;;;;14.88;3.63;;;;;;;4.10;100.00;100498.13;5096436;28;20447;-74
2022/02/23 03:55:43;;;;;;;11.73;3.33;;;;;;;4.03;100.00;100491.28;5096808;28;20072;-74
2022/02/23 03:58:11;;;;;;;8.68;3.13;;;;;;;4.08;100.00;100499.09;5096246;28;20044;-73
2022/02/23 04:00:42;;;;;;;11.15;3.13;;;;;;;4.08;100.00;100504.38;5096921;28;20401;-73
2022/02/23 04:03:10;;;;;;;10.30;3.33;;;;;;;4.02;100.00;100506.25;5096511;28;20063;-73
2022/02/23 04:05:39;;;;;;;9.10;3.28;;;;;;;3.99;100.00;100501.09;5096678;28;20044;-73
2022/02/23 04:08:11;;;;;;;8.60;3.40;;;;;;;3.96;100.00;100501.19;5096213;28;20047;-75
2022/02/23 04:10:39;;;;;;;8.73;3.40;;;;;;;3.95;100.00;100509.97;5095998;28;20047;-76
2022/02/23 04:13:07;;;;;;;8.95;3.33;;;;;;;3.99;100.00;100506.38;5095863;28;20040;-76
2022/02/23 04:15:35;;;;;;;6.57;2.70;;;;;;;3.99;100.00;100508.13;5095830;28;20088;-76
2022/02/23 04:18:04;;;;;;;6.55;2.70;;;;;;;4.02;100.00;100508.91;5095730;28;20493;-75
2022/02/23 04:20:32;;;;;;;7.25;2.83;;;;;;;4.01;100.00;100509.81;5077874;28;20059;-76
2022/02/23 04:23:00;;;;;;;9.13;3.28;;;;;;;4.02;100.00;100516.81;5095778;28;20477;-78
2022/02/23 04:25:30;;;;;;;7.65;2.75;;;;;;;4.03;100.00;100517.69;5095685;28;20032;-79
2022/02/23 04:27:58;;;;;;;8.13;2.90;;;;;;;4.06;100.00;100516.75;5078125;28;20052;-76
2022/02/23 04:30:27;;;;;;;7.78;3.00;;;;;;;4.06;100.00;100506.19;5095731;28;20051;-74
2022/02/23 04:32:55;;;;;;;8.98;2.67;;;;;;;4.08;100.00;100507.88;5095930;28;20439;-74
2022/02/23 04:35:23;;;;;;;6.97;2.05;;;;;;;4.09;100.00;100514.88;5095203;28;20047;-74
2022/02/23 04:37:51;;;;;;;5.65;2.25;;;;;;;4.10;100.00;100519.25;5095441;28;20067;-73
2022/02/23 04:40:20;;;;;;;6.35;2.17;;;;;;;4.08;100.00;100507.88;5095122;28;20131;-75
2022/02/23 04:42:49;;;;;;;8.75;2.60;;;;;;;4.10;100.00;100507.81;5095575;28;20114;-76
2022/02/23 04:45:18;;;;;;;8.20;2.58;;;;;;;4.03;100.00;100523.81;5095132;28;20062;-75
2022/02/23 04:47:46;;;;;;;9.48;2.65;;;;;;;4.12;100.00;100517.41;5077322;28;20079;-76
2022/02/23 04:50:14;;;;;;;8.45;2.78;;;;;;;4.11;100.00;100528.03;5095050;28;20044;-77
2022/02/23 04:52:42;;;;;;;4.93;2.58;;;;;;;4.12;100.00;100532.38;5095647;28;20079;-76
2022/02/23 04:55:11;;;;;;;7.93;3.13;;;;;;;4.17;100.00;100530.50;5095094;28;20040;-76
2022/02/23 04:57:39;;;;;;;7.93;2.80;;;;;;;4.17;100.00;100526.06;5095684;28;20137;-75
2022/02/23 05:00:10;;;;;;;7.03;2.53;;;;;;;4.18;100.00;100537.50;5095315;28;20046;-82
2022/02/23 05:02:38;;;;;;;9.10;3.15;;;;;;;4.15;100.00;100532.28;5077390;28;20048;-75
2022/02/23 05:05:07;;;;;;;13.43;4.93;;;;;;;3.99;100.00;100521.34;5095319;28;20043;-75
2022/02/23 05:07:36;;;;;;;13.40;5.30;;;;;;;3.86;100.00;100522.56;5095319;28;20093;-75
2022/02/23 05:10:05;;;;;;;18.63;5.03;;;;;;;3.86;100.00;100522.56;5095215;28;20040;-75
2022/02/23 05:12:34;;;;;;;15.05;5.18;;;;;;;3.99;100.00;100516.06;5094711;28;20046;-75
2022/02/23 05:15:02;;;;;;;17.63;4.68;;;;;;;3.92;100.00;100523.28;5076543;28;20374;-76
2022/02/23 05:17:34;;;;;;;13.40;5.15;;;;;;;3.94;100.00;100533.78;5095118;28;20043;-75
2022/02/23 05:20:04;;;;;;;13.88;5.10;;;;;;;3.93;100.00;100532.91;5094719;28;20074;-75
2022/02/23 05:22:32;;;;;;;15.13;4.80;;;;;;;3.97;100.00;100542.50;5094735;28;20051;-76
2022/02/23 05:25:02;;;;;;;9.48;4.13;;;;;;;4.02;100.00;100543.22;5076793;28;20040;-76
2022/02/23 05:27:30;;;;;;;13.07;4.65;;;;;;;4.00;100.00;100547.69;5094173;28;20048;-76
2022/02/23 05:29:58;;;;;;;15.02;5.00;;;;;;;3.99;100.00;100551.22;5094690;28;20481;-76
2022/02/23 05:32:26;;;;;;;15.18;4.82;;;;;;;4.00;100.00;100552.97;5075590;28;20044;-75
2022/02/23 05:34:56;;;;;;;14.15;5.00;;;;;;;4.09;100.00;100558.88;5094404;28;20094;-75
2022/02/23 05:37:24;;;;;;;9.13;4.05;;;;;;;4.10;100.00;100560.63;5094235;28;20131;-76
2022/02/23 05:39:53;;;;;;;13.25;5.05;;;;;;;4.12;100.00;100566.72;5078882;28;20542;-76
2022/02/23 05:42:21;;;;;;;13.25;4.63;;;;;;;4.25;100.00;100582.19;5099394;28;20039;-76
2022/02/23 05:44:50;;;;;;;11.80;3.67;;;;;;;4.45;100.00;100578.94;5104307;28;20051;-75
2022/02/23 05:47:18;;;;;;;11.73;4.13;;;;;;;4.46;100.00;100575.38;5102435;28;20044;-75
2022/02/23 05:49:46;;;;;;;8.70;2.60;;;;;;;4.62;100.00;100581.06;5106478;28;20118;-74
2022/02/23 05:52:19;;;;;;;6.32;2.50;;;;;;;4.75;100.00;100581.56;5089521;28;20511;-74
2022/02/23 05:54:49;;;;;;;9.00;2.75;;;;;;;4.77;100.00;100590.31;5078501;28;20097;-75
2022/02/23 05:57:18;;;;;;;6.30;2.47;;;;;;;4.82;100.00;100583.09;5095538;28;20479;-76
2022/02/23 05:59:48;;;;;;;5.30;1.92;;;;;;;4.82;100.00;100591.00;5102008;28;20052;-74
2022/02/23 06:02:16;;;;;;;5.88;2.03;;;;;;;4.85;100.00;100588.28;5079436;28;20048;-77
2022/02/23 06:04:45;;;;;;;7.43;1.90;;;;;;;4.73;100.00;100597.47;5076448;28;20075;-72
2022/02/23 06:07:17;;;;;;;8.77;1.80;;;;;;;4.72;100.00;100587.78;5093596;28;20040;-71
2022/02/23 06:09:45;;;;;;;6.50;1.70;;;;;;;4.69;100.00;100593.19;5093748;28;20036;-70
2022/02/23 06:12:13;;;;;;;3.47;1.90;;;;;;;4.69;100.00;100595.81;5075714;28;20058;-80
2022/02/23 06:14:41;;;;;;;6.10;2.17;;;;;;;4.72;100.00;100592.22;5075606;28;20066;-74
2022/02/23 06:17:10;;;;;;;5.80;2.20;;;;;;;4.73;100.00;100599.22;5075704;28;20063;-72
2022/02/23 06:19:38;;;;;;;7.60;2.17;;;;;;;4.76;100.00;100594.72;5075057;28;20074;-72
2022/02/23 06:22:07;;;;;;;6.00;2.25;;;;;;;4.76;100.00;100594.72;5102635;28;20051;-73
2022/02/23 06:24:40;;;;;;;7.13;1.95;;;;;;;4.76;100.00;100599.16;5111455;28;20093;-71
2022/02/23 06:27:09;;;;;;;8.18;2.20;;;;;;;4.79;100.00;100604.31;5096123;28;20047;-70
2022/02/23 06:29:38;;;;;;;4.93;2.30;;;;;;;4.81;100.00;100608.66;5113660;28;20043;-72
2022/02/23 06:32:08;;;;;;;8.02;2.42;;;;;;;4.82;100.00;100609.50;5113716;28;20051;-71
2022/02/23 06:34:37;;;;;;;9.63;2.60;;;;;;;4.89;100.00;100609.28;5113798;28;20075;-72
2022/02/23 06:37:06;;;;;;;7.32;2.65;;;;;;;4.89;100.00;100619.00;5114008;28;20085;-71
2022/02/23 06:39:39;;;;;;;8.75;2.53;;;;;;;4.92;100.00;100618.03;5113786;28;20048;-71
2022/02/23 06:42:08;;;;;;;7.03;2.60;;;;;;;4.97;100.00;100621.41;5113595;28;20400;-72
2022/02/23 06:44:36;;;;;;;5.95;2.38;;;;;;;5.02;100.00;100628.28;5094968;28;20345;-73
2022/02/23 06:47:04;;;;;;;9.93;2.50;;;;;;;5.06;100.00;100624.63;5113631;28;20438;-71
2022/02/23 06:49:35;;;;;;;6.40;2.60;;;;;;;5.03;100.00;100622.09;5113556;28;20084;-72
2022/02/23 06:52:05;;;;;;;6.10;2.60;;;;;;;4.92;100.00;100637.38;5095055;28;20117;-71
2022/02/23 06:54:33;;;;;;;7.07;2.75;;;;;;;4.78;100.00;100631.66;5113109;28;20047;-73
2022/02/23 06:57:06;;;;;;;8.93;2.95;;;;;;;4.81;100.00;100628.94;5095468;28;20048;-73
2022/02/23 06:59:34;;;;;;;8.93;3.08;;;;;;;4.77;100.00;100627.31;5095087;28;20092;-72
2022/02/23 07:02:03;;;;;;;6.53;2.72;;;;;;;4.65;100.00;100627.69;5113663;28;20409;-72
2022/02/23 07:04:32;;;;;;;7.13;2.63;;;;;;;4.69;100.00;100618.75;5113461;28;20138;-72
2022/02/23 07:07:03;;;;;;;6.18;2.65;;;;;;;4.65;100.00;100611.81;5095572;28;20047;-70
2022/02/23 07:09:33;;;;;;;10.63;3.60;;;;;;;4.66;100.00;100624.13;5096383;28;20441;-70
2022/02/23 07:12:05;;;;;;;7.75;2.58;;;;;;;4.71;100.00;100627.47;5115119;28;20187;-70
2022/02/23 07:14:34;;;;;;;8.30;3.00;;;;;;;4.65;100.00;100633.84;5095073;28;20047;-70
2022/02/23 07:17:02;;;;;;;8.77;3.28;;;;;;;4.68;100.00;100632.88;5095225;28;20138;-69
2022/02/23 07:19:34;;;;;;;9.30;4.72;;;;;;;4.67;100.00;100636.41;5095084;28;20044;-70
2022/02/23 07:22:03;;;;;;;10.25;3.72;;;;;;;4.61;100.00;100640.09;5113105;28;20050;-71
2022/02/23 07:24:34;;;;;;;12.73;6.15;;;;;;;4.63;100.00;100634.75;5113192;28;20044;-71
2022/02/23 07:27:10;;;;;;;12.38;4.55;;;;;;;4.63;100.00;100640.03;5095375;28;20086;-70
2022/02/23 07:29:38;;;;;;;10.80;3.67;;;;;;;4.60;100.00;100647.16;5113260;28;20047;-69
2022/02/23 07:32:08;;;;;;;7.45;3.42;;;;;;;4.68;100.00;100648.72;5095240;28;20471;-70
2022/02/23 07:34:40;;;;;;;11.60;3.58;;;;;;;4.62;100.00;100641.81;5113055;28;20068;-69
2022/02/23 07:37:08;;;;;;;10.55;3.50;;;;;;;4.63;100.00;100655.91;5095059;28;20123;-70
2022/02/23 07:39:37;;;;;;;10.38;3.50;;;;;;;4.69;100.00;100646.03;5094891;28;20062;-69
2022/02/23 07:42:08;;;;;;;12.65;4.13;;;;;;;4.67;100.00;100649.63;5113319;28;20114;-71
2022/02/23 07:44:56;;;;;;;8.88;3.38;;;;;;;4.62;100.00;100655.03;5113397;28;20044;-71
2022/02/23 07:47:26;;;;;;;13.02;4.20;;;;;;;4.62;100.00;100662.09;5094276;28;20130;-71
2022/02/23 07:49:55;;;;;;;10.27;3.92;;;;;;;4.71;100.00;100653.91;5095128;28;20134;-70
2022/02/23 07:52:23;;;;;;;10.55;3.83;;;;;;;4.75;100.00;100645.84;5094906;28;20047;-68
2022/02/23 07:54:52;;;;;;;10.73;3.83;;;;;;;4.78;100.00;100642.25;5095281;28;20472;-69
2022/02/23 07:57:22;;;;;;;9.80;3.08;;;;;;;4.86;100.00;100648.16;5098665;28;20051;-70
2022/02/23 07:59:50;;;;;;;11.05;3.88;;;;;;;4.91;100.00;100645.38;5098803;28;20051;-69
2022/02/23 08:02:20;;;;;;;10.30;3.35;;;;;;;5.01;100.00;100646.81;5117126;28;20397;-70
2022/02/23 08:04:52;;;;;;;11.30;3.35;;;;;;;4.91;100.00;100640.09;5098624;28;20092;-70
2022/02/23 08:07:21;;;;;;;8.23;3.70;;;;;;;4.96;100.00;100656.69;5116477;28;20059;-69
2022/02/23 08:09:50;;;;;;;11.35;3.92;;;;;;;4.94;100.00;100662.03;5097972;28;20070;-69
2022/02/23 08:12:18;;;;;;;8.95;3.45;;;;;;;5.06;100.00;100668.72;5116078;28;20058;-69
2022/02/23 08:14:52;;;;;;;7.45;2.92;;;;;;;5.11;100.00;100670.28;5098380;28;20085;-69
2022/02/23 08:20:26;;;;;;;12.80;3.80;;;;;;;4.95;100.00;100682.25;5098045;28;20476;-70
2022/02/23 08:22:55;;;;;;;9.40;2.83;;;;;;;4.95;100.00;100684.03;5097976;28;20040;-69
2022/02/23 08:25:23;;;;;;;7.20;3.53;;;;;;;4.93;100.00;100686.72;5116486;28;20453;-69
2022/02/23 08:27:52;;;;;;;12.07;4.38;;;;;;;5.00;100.00;100682.97;5116292;28;20169;-71
2022/02/23 08:30:24;;;;;;;9.55;4.15;;;;;;;5.04;100.00;100692.56;5116513;28;20059;-69
2022/02/23 08:32:55;;;;;;;9.75;3.83;;;;;;;5.08;100.00;100699.47;5098107;28;20134;-69
2022/02/23 08:35:44;;;;;;;12.90;4.30;;;;;;;5.23;100.00;100700.78;5097843;28;20070;-69
2022/02/23 08:38:12;;;;;;;12.60;4.15;;;;;;;5.38;100.00;100712.66;5098139;28;20052;-69
2022/02/23 08:40:42;;;;;;;11.23;4.47;;;;;;;5.36;100.00;100717.13;5097485;28;20126;-69
2022/02/23 08:43:11;;;;;;;11.98;4.53;;;;;;;5.48;100.00;100716.75;5097930;28;20572;-69
2022/02/23 08:45:41;;;;;;;9.27;3.83;;;;;;;5.59;100.00;100706.66;5097543;28;20126;-69
2022/02/23 08:48:13;;;;;;;9.25;3.92;;;;;;;5.60;100.00;100708.44;5116101;28;20042;-70
2022/02/23 08:50:41;;;;;;;10.32;4.75;;;;;;;5.65;100.00;100709.13;5097514;28;20055;-69
2022/02/23 08:53:09;;;;;;;9.23;4.40;;;;;;;5.78;100.00;100708.72;5116020;28;20127;-69
2022/02/23 08:55:38;;;;;;;9.50;4.47;;;;;;;5.94;100.00;100704.69;5097301;28;20120;-69
2022/02/23 08:58:06;;;;;;;9.68;4.20;;;;;;;5.89;100.00;100702.16;5115974;28;20064;-69
2022/02/23 09:00:34;;;;;;;12.88;4.72;;;;;;;6.01;100.00;100706.22;5097185;28;20051;-69
2022/02/23 09:03:05;;;;;;;11.32;4.35;;;;;;;6.24;100.00;100703.63;5115762;28;20477;-68
2022/02/23 09:05:33;;;;;;;10.80;4.85;;;;;;;6.11;100.00;100707.63;5115892;28;20046;-69
2022/02/23 09:08:03;;;;;;;13.18;4.85;;;;;;;6.16;100.00;100707.44;5096239;28;20047;-69
2022/02/23 09:10:31;;;;;;;12.20;4.70;;;;;;;6.19;100.00;100713.53;5097182;28;20051;-69
2022/02/23 09:13:02;;;;;;;14.02;5.50;;;;;;;6.51;100.00;100722.13;5097603;28;20059;-69
2022/02/23 09:15:31;;;;;;;11.25;4.47;;;;;;;6.83;100.00;100726.22;5093305;28;20044;-70
2022/02/23 09:17:59;;;;;;;11.13;4.78;;;;;;;6.87;100.00;100731.38;5095412;28;20439;-69
2022/02/23 09:20:29;;;;;;;10.68;4.18;;;;;;;6.98;100.00;100736.28;5094961;28;20085;-68
2022/02/23 09:22:57;;;;;;;12.73;4.90;;;;;;;7.00;100.00;100725.59;5093689;28;20051;-67
2022/02/23 09:25:26;;;;;;;10.15;4.30;;;;;;;7.15;100.00;100735.66;5093615;28;20117;-67
2022/02/23 09:27:54;;;;;;;12.63;5.30;;;;;;;7.19;100.00;100734.59;5094790;28;20071;-68
2022/02/23 09:30:22;;;;;;;12.80;4.75;;;;;;;7.23;100.00;100733.53;5093589;28;20048;-69
2022/02/23 09:32:51;;;;;;;13.60;5.32;;;;;;;7.24;100.00;100724.69;5093286;28;20073;-69
2022/02/23 09:35:20;;;;;;;12.75;5.47;;;;;;;7.36;100.00;100736.59;5094839;28;20048;-69
2022/02/23 09:37:49;;;;;;;12.75;5.18;;;;;;;7.44;100.00;100756.59;5094579;28;20122;-69
2022/02/23 09:40:18;;;;;;;11.00;3.42;;;;;;;7.49;100.00;100760.84;5093561;28;20048;-69
2022/02/23 09:42:46;;;;;;;7.93;2.95;;;;;;;7.61;100.00;100749.75;5092574;28;20539;-69
2022/02/23 09:45:15;;;;;;;6.72;2.55;;;;;;;7.75;100.00;100771.31;5094661;28;20072;-69
2022/02/23 09:47:45;;;;;;;4.28;1.95;;;;;;;7.89;100.00;100760.97;5093036;28;20052;-69
2022/02/23 09:50:18;;;;;;;6.38;2.65;;;;;;;7.77;100.00;100750.88;5093342;28;20048;-69
2022/02/23 09:52:49;;;;;;;5.05;2.10;;;;;;;7.67;100.00;100765.44;5092588;28;20052;-68
2022/02/23 09:55:17;;;;;;;8.80;2.25;;;;;;;7.83;100.00;100768.34;5092911;28;20055;-69
2022/02/23 09:57:46;;;;;;;6.03;2.00;;;;;;;7.94;100.00;100772.28;5093793;28;20059;-69
2022/02/23 10:00:15;;;;;;;3.42;1.73;;;;;;;8.00;100.00;100765.84;5092844;28;20052;-68
2022/02/23 10:02:43;;;;;;;5.53;2.10;;;;;;;7.97;100.00;100785.44;5093969;28;20075;-68
2022/02/23 10:05:16;;;;;;;5.65;2.20;;;;;;;8.04;100.00;100776.31;5094320;28;20059;-69
2022/02/23 10:07:44;;;;;;;5.88;2.00;;;;;;;8.14;100.00;100776.78;5094052;28;20032;-68
2022/02/23 10:10:31;;;;;;;6.38;2.22;;;;;;;8.17;100.00;100787.28;5092742;28;20055;-69
2022/02/23 10:13:03;;;;;;;6.70;2.15;;;;;;;8.07;100.00;100790.38;5093760;28;20122;-68
2022/02/23 10:15:33;;;;;;;10.07;2.35;;;;;;;8.16;100.00;100817.44;5092354;28;20059;-79
2022/02/23 10:18:08;;;;;;;4.38;2.10;;;;;;;8.08;100.00;100792.97;5092417;28;20048;-68
2022/02/23 10:20:39;;;;;;;5.45;2.30;;;;;;;7.87;100.00;100789.41;5092301;28;20453;-69
2022/02/23 10:23:17;;;;;;;4.80;1.85;;;;;;;7.99;100.00;100788.03;5093674;28;20067;-68
2022/02/23 10:25:51;;;;;;;9.68;2.67;;;;;;;8.18;100.00;100804.94;5093684;28;20036;-69
2022/02/23 10:28:22;;;;;;;4.80;2.20;;;;;;;8.25;100.00;100789.63;5092647;28;20131;-68
2022/02/23 10:30:52;;;;;;;6.55;2.05;;;;;;;8.64;100.00;100788.88;5092171;28;20048;-69
2022/02/23 10:33:22;;;;;;;6.55;2.47;;;;;;;8.71;100.00;100804.50;5093289;28;20077;-68
2022/02/23 10:36:15;;;;;;;7.07;2.70;;;;;;;8.81;100.00;100796.97;5093513;28;20122;-69
2022/02/23 10:38:46;;;;;;;5.05;2.22;;;;;;;8.87;100.00;100799.34;5093471;28;20044;-69
2022/02/23 10:41:25;;;;;;;8.18;2.28;;;;;;;8.79;100.00;100817.47;5092128;28;20497;-68
2022/02/23 10:43:54;;;;;;;7.05;2.13;;;;;;;8.71;100.00;100800.97;5092157;28;20060;-69
2022/02/23 10:46:25;;;;;;;6.40;2.30;;;;;;;8.84;100.00;100800.34;5092635;28;20118;-69
2022/02/23 10:48:58;;;;;;;7.50;2.15;;;;;;;9.02;100.00;100798.69;5092230;28;20056;-69
2022/02/23 10:51:29;;;;;;;3.08;1.70;;;;;;;9.15;100.00;100809.63;5093661;28;20078;-68
2022/02/23 10:54:04;;;;;;;4.75;1.60;;;;;;;9.25;97.63;100818.06;5093247;28;20048;-68
2022/02/23 10:56:36;;;;;;;4.68;1.35;;;;;;;8.76;94.36;100847.72;5093480;28;20076;-69
2022/02/23 10:59:07;;;;;;;4.78;1.10;;;;;;;8.55;93.33;100845.97;5093333;28;20120;-68
2022/02/23 11:01:37;;;;;;;5.18;1.50;;;;;;;8.62;92.67;100822.66;5091720;28;20051;-77
2022/02/23 11:04:06;;;;;;;3.85;1.40;;;;;;;8.55;93.07;100812.25;5092263;28;20048;-69
2022/02/23 11:06:35;;;;;;;7.45;1.80;;;;;;;8.63;92.83;100808.44;5091984;28;20048;-68
2022/02/23 11:09:04;;;;;;;5.82;1.30;;;;;;;8.76;91.67;100814.94;5092057;28;20135;-68
2022/02/23 11:11:35;;;;;;;4.22;1.23;;;;;;;8.81;92.45;100808.47;5092837;28;20056;-68
2022/02/23 11:14:07;;;;;;;4.07;1.45;;;;;;;8.82;92.29;100822.66;5092928;28;20527;-69
2022/02/23 11:16:35;;;;;;;7.07;1.70;;;;;;;8.83;91.29;100811.06;5091719;28;20139;-68
2022/02/23 11:19:05;;;;;;;8.38;1.80;;;;;;;8.80;91.22;100797.91;5091789;28;20131;-69
2022/02/23 11:21:37;;;;;;;5.25;1.63;;;;;;;8.95;89.97;100818.50;5091801;28;20048;-68
2022/02/23 11:24:10;;;;;;;3.95;1.50;;;;;;;9.06;89.05;100816.22;5092944;28;20390;-69
2022/02/23 11:26:42;;;;;;;6.65;1.58;;;;;;;8.99;86.75;100832.56;5092968;28;20040;-69
2022/02/23 11:29:20;;;;;;;5.72;1.40;;;;;;;9.22;87.27;100829.72;5093367;28;20047;-69
2022/02/23 11:31:50;;;;;;;7.50;1.60;;;;;;;9.32;86.38;100822.16;5095192;28;20048;-69
2022/02/23 11:34:21;;;;;;;3.50;1.60;;;;;;;9.39;85.37;100810.31;5095691;28;20052;-69
2022/02/23 11:36:53;;;;;;;4.72;1.30;;;;;;;9.29;77.02;100822.31;5096950;28;20071;-68
2022/02/23 11:39:23;;;;;;;5.80;1.58;;;;;;;9.17;73.10;100818.44;5097027;28;20040;-68